Time;durP1;ratioP1;P1;durP2;ratioP2;P2;SDS_P1;SDS_P2;PMS_P1;PMS_P2;Temp;Humidity;BMP_temperature;BMP_pressure;BME280_temperature;BME280_humidity;BME280_pressure;Samples;Min_cycle;Max_cycle;Signal;HPM_P1;HPM_P2
2021/01/27 00:01:02;;;;;;;;;9.75;8.75;;;;;12.98;44.75;98004.06;4711293;29;103040;-84
2021/01/27 00:03:29;;;;;;;;;12.50;9.50;;;;;12.96;44.89;97988.03;4713319;29;105328;-84
2021/01/27 00:05:56;;;;;;;;;11.75;9.50;;;;;12.93;44.96;97988.47;4710354;29;103574;-84
2021/01/27 00:08:22;;;;;;;;;14.50;12.25;;;;;12.93;45.44;97985.75;4721875;29;102884;-84
2021/01/27 00:10:49;;;;;;;;;10.50;9.25;;;;;12.92;45.28;97986.81;4716136;29;102934;-84
2021/01/27 00:13:18;;;;;;;;;13.25;9.00;;;;;12.92;45.40;97980.56;4708244;29;106367;-84
2021/01/27 00:15:45;;;;;;;;;10.00;9.25;;;;;12.90;44.89;97985.38;4707313;29;104164;-84
2021/01/27 00:18:13;;;;;;;;;10.25;9.25;;;;;12.88;44.74;97991.03;4715185;29;103040;-84
2021/01/27 00:20:39;;;;;;;;;13.75;9.75;;;;;12.87;44.87;97988.56;4710393;29;103065;-84
2021/01/27 00:23:07;;;;;;;;;13.50;13.00;;;;;12.85;45.32;97986.09;4713326;29;103964;-84
2021/01/27 00:25:34;;;;;;;;;12.25;11.50;;;;;12.85;44.51;97994.22;4712905;29;102953;-84
2021/01/27 00:28:01;;;;;;;;;15.00;11.50;;;;;12.84;44.51;97984.41;4704667;29;104860;-84
2021/01/27 00:30:30;;;;;;;;;10.50;9.50;;;;;12.83;44.99;97990.09;4716893;29;103995;-84
2021/01/27 00:32:57;;;;;;;;;14.75;12.25;;;;;12.83;45.33;97987.38;4713215;29;104664;-83
2021/01/27 00:35:26;;;;;;;;;11.25;9.00;;;;;12.82;44.77;97985.72;4710403;29;103496;-84
2021/01/27 00:37:54;;;;;;;;;13.75;10.25;;;;;12.80;45.13;97991.38;4722073;29;103660;-84
2021/01/27 00:40:21;;;;;;;;;8.75;8.75;;;;;12.79;44.88;97992.41;4707567;29;102983;-84
2021/01/27 00:42:48;;;;;;;;;11.25;9.25;;;;;12.79;44.90;97991.59;4715622;29;104138;-84
2021/01/27 00:45:15;;;;;;;;;14.50;12.75;;;;;12.78;45.37;97989.97;4712860;29;104651;-84
2021/01/27 00:47:42;;;;;;;;;11.75;10.25;;;;;12.75;45.28;97991.22;4722527;29;102961;-84
2021/01/27 00:50:09;;;;;;;;;15.50;14.00;;;;;12.76;45.17;97987.47;4717981;29;102886;-84
2021/01/27 00:52:36;;;;;;;;;13.00;11.00;;;;;12.74;44.92;97989.56;4709377;29;103994;-84
2021/01/27 00:55:16;;;;;;;;;10.50;9.00;;;;;12.74;45.60;97988.75;4714723;29;102693;-84
2021/01/27 00:57:42;;;;;;;;;15.75;10.50;;;;;12.72;45.35;97985.44;4719159;29;103235;-84
2021/01/27 01:00:27;;;;;;;;;14.75;8.75;;;;;12.71;45.10;97990.03;4705032;29;102923;-84
2021/01/27 01:02:54;;;;;;;;;11.75;9.00;;;;;12.71;45.14;97997.34;4707364;29;108561;-84
2021/01/27 01:05:24;;;;;;;;;12.25;10.25;;;;;12.69;45.00;97992.16;4681036;29;104022;-84
2021/01/27 01:07:51;;;;;;;;;14.50;11.00;;;;;12.69;44.46;97991.34;4665714;29;103629;-84
2021/01/27 01:10:26;;;;;;;;;12.75;10.50;;;;;12.68;44.89;97990.50;4695571;29;103355;-84
2021/01/27 01:12:56;;;;;;;;;11.75;10.00;;;;;12.67;45.13;97988.00;4708086;29;109010;-84
2021/01/27 01:15:26;;;;;;;;;13.75;11.00;;;;;12.65;44.77;97992.84;4704866;29;102822;-84
2021/01/27 01:17:55;;;;;;;;;13.00;12.25;;;;;12.64;44.84;97994.72;4706051;29;103118;-84
2021/01/27 01:20:25;;;;;;;;;13.75;12.00;;;;;12.63;45.13;97984.09;4707861;29;102999;-84
2021/01/27 01:22:55;;;;;;;;;13.50;9.50;;;;;12.63;45.01;97992.25;4709684;29;111903;-84
2021/01/27 01:25:26;;;;;;;;;9.50;9.00;;;;;12.62;44.76;97985.97;4705780;29;102790;-84
2021/01/27 01:27:55;;;;;;;;;15.00;11.50;;;;;12.61;45.54;97986.22;4702832;29;102927;-84
2021/01/27 01:30:29;;;;;;;;;12.50;10.00;;;;;12.58;45.18;97978.53;4702286;29;102953;-84
2021/01/27 01:32:59;;;;;;;;;13.25;12.75;;;;;12.59;44.51;97986.44;4707891;29;109078;-84
2021/01/27 01:35:28;;;;;;;;;13.25;11.00;;;;;12.57;45.12;97987.72;4713751;29;102937;-84
2021/01/27 01:37:57;;;;;;;;;9.50;9.00;;;;;12.58;44.89;97987.50;4700053;29;102870;-84
2021/01/27 01:40:30;;;;;;;;;15.75;13.00;;;;;12.55;45.24;97982.53;4705491;29;102970;-84
2021/01/27 01:43:01;;;;;;;;;12.00;9.00;;;;;12.55;44.70;97984.41;4704978;29;108843;-84
2021/01/27 01:45:39;;;;;;;;;16.00;9.50;;;;;12.53;45.41;97982.75;4712300;29;105275;-83
2021/01/27 01:48:33;;;;;;;;;12.25;10.25;;;;;12.51;45.63;97974.03;4668514;29;103158;-84
2021/01/27 01:51:14;;;;;;;;;12.75;10.25;;;;;12.51;45.11;97981.34;4703784;29;103764;-84
2021/01/27 01:53:42;;;;;;;;;13.25;11.50;;;;;12.50;44.54;97977.81;4704605;29;103728;-84
2021/01/27 01:56:10;;;;;;;;;13.25;10.75;;;;;12.49;44.79;97976.13;4706603;29;106381;-84
2021/01/27 01:58:37;;;;;;;;;9.25;9.00;;;;;12.47;45.08;97980.94;4711340;29;104086;-84
2021/01/27 02:01:04;;;;;;;;;13.75;12.00;;;;;12.47;45.07;97972.81;4692199;29;103676;-84
2021/01/27 02:03:35;;;;;;;;;12.50;10.25;;;;;12.47;44.97;97977.44;4696251;29;104902;-84
2021/01/27 02:06:04;;;;;;;;;13.50;10.75;;;;;12.46;44.94;97970.34;4692202;29;103022;-84
2021/01/27 02:08:31;;;;;;;;;15.75;11.50;;;;;12.44;44.48;97976.00;4701999;29;102826;-84
2021/01/27 02:10:58;;;;;;;;;15.25;10.25;;;;;12.44;45.09;97973.28;4708788;29;103017;-84
2021/01/27 02:13:36;;;;;;;;;15.25;12.50;;;;;12.44;45.21;97976.00;4682157;29;104647;-84
2021/01/27 02:16:50;;;;;;;;;13.50;9.25;;;;;12.41;44.66;97960.19;4641774;29;103080;-84
2021/01/27 02:19:41;;;;;;;;;17.75;13.25;;;;;12.43;45.60;97970.78;4634072;29;105020;-84
2021/01/27 02:22:31;;;;;;;;;11.75;10.00;;;;;12.41;45.38;97971.03;4649486;29;103000;-84
2021/01/27 02:25:21;;;;;;;;;16.25;11.00;;;;;12.40;45.16;97968.53;4708974;29;108647;-85
2021/01/27 02:27:51;;;;;;;;;11.00;9.00;;;;;12.39;44.85;97970.41;4658033;29;103089;-84
2021/01/27 02:30:53;;;;;;;;;12.25;9.00;;;;;12.38;44.75;97966.03;4700440;29;103100;-84
2021/01/27 02:33:44;;;;;;;;;13.00;10.25;;;;;12.38;44.89;97967.97;4646731;29;103046;-84
2021/01/27 02:36:37;;;;;;;;;12.00;8.25;;;;;12.37;45.03;97964.41;4665848;29;109090;-84
2021/01/27 02:39:26;;;;;;;;;12.50;9.25;;;;;12.36;44.86;97959.22;4649150;29;103092;-84
2021/01/27 02:42:10;;;;;;;;;12.00;9.00;;;;;12.36;44.86;97956.50;4689221;29;104376;-84
2021/01/27 02:45:08;;;;;;;;;13.75;11.75;;;;;12.31;44.75;97950.94;4647040;29;103028;-84
2021/01/27 02:47:55;;;;;;;;;10.75;8.75;;;;;12.32;45.26;97956.13;4640099;29;108131;-84
2021/01/27 02:50:26;;;;;;;;;8.25;7.50;;;;;12.32;44.72;97950.72;4700066;29;103083;-84
2021/01/27 02:52:57;;;;;;;;;12.50;8.50;;;;;12.32;45.24;97953.44;4702117;29;102857;-84
2021/01/27 02:55:29;;;;;;;;;8.75;8.25;;;;;12.29;45.45;97939.50;4705731;29;103015;-84
2021/01/27 02:58:34;;;;;;;;;11.25;9.50;;;;;12.31;44.85;97951.75;4685783;29;109372;-84
2021/01/27 03:01:06;;;;;;;;;14.75;12.00;;;;;12.29;45.29;97959.28;4636978;29;103019;-84
2021/01/27 03:03:39;;;;;;;;;9.75;9.75;;;;;12.29;45.02;97951.16;4708775;29;102842;-84
2021/01/27 03:06:07;;;;;;;;;12.50;9.25;;;;;12.29;45.22;97958.47;4711097;29;103043;-84
2021/01/27 03:08:38;;;;;;;;;9.25;9.00;;;;;12.27;44.87;97950.56;4704976;29;104543;-84
2021/01/27 03:11:09;;;;;;;;;11.75;8.75;;;;;12.27;44.78;97956.00;4711838;29;103267;-84
2021/01/27 03:13:36;;;;;;;;;10.25;8.25;;;;;12.27;45.04;97956.00;4711574;29;103113;-84
2021/01/27 03:16:07;;;;;;;;;9.00;8.00;;;;;12.25;44.95;97954.53;4714581;29;103031;-84
2021/01/27 03:18:35;;;;;;;;;13.25;9.00;;;;;12.24;44.75;97956.44;4679839;29;104450;-84
2021/01/27 03:21:05;;;;;;;;;9.75;7.75;;;;;12.24;44.73;97961.88;4703915;29;103059;-83
2021/01/27 03:23:47;;;;;;;;;12.75;10.25;;;;;12.22;44.78;97958.56;4709479;29;102978;-84
2021/01/27 03:26:20;;;;;;;;;10.75;9.00;;;;;12.22;45.03;97963.13;4691973;29;102973;-84
2021/01/27 03:28:51;;;;;;;;;16.50;10.00;;;;;12.22;45.18;97963.97;4708376;29;104668;-84
2021/01/27 03:31:18;;;;;;;;;11.00;7.75;;;;;12.21;45.02;97956.88;4713397;29;105036;-84
2021/01/27 03:34:00;;;;;;;;;6.75;5.00;;;;;12.20;45.26;97963.38;4705722;29;104768;-84
2021/01/27 03:36:33;;;;;;;;;12.00;11.00;;;;;12.20;44.94;97957.97;4710920;29;103527;-84
2021/01/27 03:38:59;;;;;;;;;8.50;8.25;;;;;12.17;45.42;97961.09;4689263;29;108951;-84
2021/01/27 03:41:32;;;;;;;;;10.50;8.75;;;;;12.17;45.35;97966.53;4694201;29;102942;-84
2021/01/27 03:44:13;;;;;;;;;12.25;8.25;;;;;12.18;45.02;97973.63;4701303;29;102974;-84
2021/01/27 03:46:54;;;;;;;;;12.75;12.25;;;;;12.18;45.32;97967.34;4656670;29;103019;-84
2021/01/27 03:49:24;;;;;;;;;10.75;8.50;;;;;12.14;44.51;97964.28;4720338;29;104830;-84
2021/01/27 03:52:03;;;;;;;;;11.25;6.75;;;;;12.16;45.18;97970.28;4709756;29;102746;-84
2021/01/27 03:54:31;;;;;;;;;9.25;6.00;;;;;12.15;45.22;97965.13;4707043;29;103075;-84
2021/01/27 03:57:07;;;;;;;;;11.25;9.00;;;;;12.14;45.15;97958.88;4697689;29;102834;-84
2021/01/27 03:59:33;;;;;;;;;11.00;8.00;;;;;12.15;45.09;97967.81;4712654;29;109661;-84
2021/01/27 04:02:00;;;;;;;;;9.00;7.25;;;;;12.13;45.09;97967.22;4703492;29;102777;-84
2021/01/27 04:04:27;;;;;;;;;10.00;8.50;;;;;12.13;44.66;97965.34;4709485;29;103762;-84
2021/01/27 04:06:54;;;;;;;;;11.00;10.25;;;;;12.13;45.38;97961.78;4716083;29;103079;-84
2021/01/27 04:09:21;;;;;;;;;12.00;8.25;;;;;12.11;44.76;97966.63;4708091;29;104586;-84
2021/01/27 04:11:48;;;;;;;;;10.75;8.25;;;;;12.11;44.82;97969.34;4707650;29;103291;-84
2021/01/27 04:14:15;;;;;;;;;9.25;8.00;;;;;12.11;45.19;97972.88;4710887;29;102780;-84
2021/01/27 04:16:42;;;;;;;;;7.00;6.50;;;;;12.12;45.07;97968.25;4706709;29;102923;-84
2021/01/27 04:19:09;;;;;;;;;9.75;7.50;;;;;12.11;45.01;97967.47;4713757;29;104681;-84
2021/01/27 04:21:36;;;;;;;;;12.00;9.00;;;;;12.12;44.62;97969.09;4700387;29;104134;-84
2021/01/27 04:24:04;;;;;;;;;8.25;7.50;;;;;12.13;45.30;97970.75;4707041;29;102978;-84
2021/01/27 04:26:31;;;;;;;;;12.75;7.25;;;;;12.14;44.93;97972.41;4706788;29;103028;-84
2021/01/27 04:28:57;;;;;;;;;8.75;8.00;;;;;12.14;44.82;97960.75;4690724;29;104655;-84
2021/01/27 04:31:24;;;;;;;;;11.00;7.50;;;;;12.14;44.72;97964.28;4712818;29;103022;-84
2021/01/27 04:33:51;;;;;;;;;6.75;6.00;;;;;12.15;45.14;97963.22;4708664;29;103122;-84
2021/01/27 04:36:17;;;;;;;;;8.00;8.00;;;;;12.16;44.57;97959.44;4710031;29;103374;-84
2021/01/27 04:38:44;;;;;;;;;8.00;7.50;;;;;12.16;44.69;97964.06;4699555;29;104081;-84
2021/01/27 04:41:11;;;;;;;;;9.25;8.00;;;;;12.16;44.77;97953.22;4700126;29;104685;-84
2021/01/27 04:43:42;;;;;;;;;7.75;7.00;;;;;12.16;45.26;97962.16;4701057;29;103197;-84
2021/01/27 04:46:15;;;;;;;;;8.25;7.00;;;;;12.17;45.03;97963.81;4705644;29;105315;-84
2021/01/27 04:48:52;;;;;;;;;8.75;7.50;;;;;12.17;44.49;97968.41;4698504;29;104746;-84
2021/01/27 04:51:24;;;;;;;;;6.75;5.75;;;;;12.17;44.69;97965.69;4704192;29;104777;-84
2021/01/27 04:53:56;;;;;;;;;8.75;6.75;;;;;12.16;44.67;97959.44;4705506;29;104968;-84
2021/01/27 04:56:26;;;;;;;;;6.75;5.75;;;;;12.17;45.08;97966.53;4691979;29;102977;-84
2021/01/27 04:59:18;;;;;;;;;5.25;5.00;;;;;12.16;44.57;97964.88;4705311;29;104096;-84
2021/01/27 05:02:11;;;;;;;;;10.00;8.00;;;;;12.16;44.80;97959.44;4657297;29;102919;-84
2021/01/27 05:04:40;;;;;;;;;6.25;6.25;;;;;12.15;45.45;97957.81;4703788;29;102843;-84
2021/01/27 05:07:08;;;;;;;;;2.00;1.25;;;;;12.15;44.85;97963.22;4709785;29;102899;-84
2021/01/27 05:09:46;;;;;;;;;4.50;4.00;;;;;12.16;44.71;97953.22;4710712;29;104206;-84
2021/01/27 05:12:14;;;;;;;;;7.25;5.00;;;;;12.15;44.96;97952.41;4698899;29;102840;-84
2021/01/27 05:14:44;;;;;;;;;6.00;6.00;;;;;12.15;44.56;97951.56;4708599;29;104046;-84
2021/01/27 05:17:11;;;;;;;;;7.00;5.00;;;;;12.16;44.99;97955.94;4720767;29;103024;-84
2021/01/27 05:19:37;;;;;;;;;7.50;4.50;;;;;12.14;44.62;97949.91;4705331;29;103712;-84
2021/01/27 05:22:05;;;;;;;;;5.00;3.50;;;;;12.13;44.47;97954.50;4715392;29;103369;-84
2021/01/27 05:24:31;;;;;;;;;6.00;5.25;;;;;12.13;45.22;97956.38;4708460;29;103248;-84
2021/01/27 05:27:10;;;;;;;;;11.50;7.50;;;;;12.12;45.05;97946.56;4714448;29;102997;-85
2021/01/27 05:30:00;;;;;;;;;10.75;5.00;;;;;12.13;44.99;97959.06;4703675;29;109987;-84
2021/01/27 05:32:27;;;;;;;;;5.50;3.50;;;;;12.11;44.68;97951.19;4698308;29;104508;-84
2021/01/27 05:34:57;;;;;;;;;6.25;5.00;;;;;12.10;44.82;97949.53;4706303;29;103005;-84
2021/01/27 05:37:29;;;;;;;;;5.50;5.00;;;;;12.08;44.55;97955.16;4712622;29;104616;-84
2021/01/27 05:40:07;;;;;;;;;6.00;5.00;;;;;12.10;44.63;97963.09;4698750;29;103969;-84
2021/01/27 05:42:37;;;;;;;;;5.25;4.00;;;;;12.09;44.76;97961.41;4705462;29;103000;-84
2021/01/27 05:45:28;;;;;;;;;5.50;4.50;;;;;12.08;45.17;97965.19;4726213;29;103031;-84
2021/01/27 05:47:55;;;;;;;;;7.50;6.00;;;;;12.08;44.60;97963.31;4647373;29;103679;-84
2021/01/27 05:50:33;;;;;;;;;7.25;4.75;;;;;12.07;44.82;97966.22;4712310;29;103959;-84
2021/01/27 05:53:13;;;;;;;;;7.50;6.75;;;;;12.06;44.65;97967.31;4706625;29;103064;-84
2021/01/27 05:56:00;;;;;;;;;6.50;5.00;;;;;12.05;44.83;97971.06;4710634;29;102835;-84
2021/01/27 05:58:27;;;;;;;;;7.00;4.25;;;;;12.05;44.79;97974.59;4713841;29;103105;-84
2021/01/27 06:01:12;;;;;;;;;7.00;6.50;;;;;12.02;44.72;97971.53;4711621;29;103755;-84
2021/01/27 06:03:54;;;;;;;;;4.00;3.00;;;;;12.04;44.91;97985.66;4694668;29;103128;-84
2021/01/27 06:06:21;;;;;;;;;4.00;4.00;;;;;12.03;44.89;97981.28;4714478;29;102789;-84
2021/01/27 06:08:49;;;;;;;;;4.00;3.25;;;;;12.02;44.61;97987.78;4717851;29;103028;-84
2021/01/27 06:11:16;;;;;;;;;4.00;4.00;;;;;12.01;44.82;97989.66;4710023;29;104083;-84
2021/01/27 06:13:43;;;;;;;;;5.00;4.00;;;;;12.02;45.18;97993.19;4697121;29;103103;-84
2021/01/27 06:16:21;;;;;;;;;5.00;5.00;;;;;12.01;44.40;97989.66;4706556;29;104362;-84
2021/01/27 06:18:48;;;;;;;;;5.50;4.25;;;;;12.00;45.22;97992.56;4719922;29;102948;-84
2021/01/27 06:21:40;;;;;;;;;5.00;4.50;;;;;11.99;44.57;97993.63;4711759;29;104601;-84
2021/01/27 06:24:16;;;;;;;;;4.00;4.00;;;;;11.98;44.71;98000.09;4705254;29;102770;-84
2021/01/27 06:27:08;;;;;;;;;6.00;5.00;;;;;11.95;44.76;97997.84;4663773;29;105537;-84
2021/01/27 06:30:13;;;;;;;;;5.25;4.00;;;;;11.96;45.12;98013.88;4717669;29;103002;-84
2021/01/27 06:32:47;;;;;;;;;5.75;5.00;;;;;11.97;45.04;98012.00;4656111;29;108697;-84
2021/01/27 06:35:41;;;;;;;;;4.00;4.00;;;;;11.97;44.78;98014.72;4708563;29;102868;-84
2021/01/27 06:38:27;;;;;;;;;5.25;4.50;;;;;11.95;44.45;98012.22;4709372;29;103003;-84
2021/01/27 06:41:16;;;;;;;;;4.75;4.25;;;;;11.96;44.90;98018.47;4710050;29;105155;-84
2021/01/27 06:44:01;;;;;;;;;3.00;3.00;;;;;11.94;45.14;98026.81;4644993;29;109618;-84
2021/01/27 06:46:56;;;;;;;;;5.50;4.00;;;;;11.94;44.90;98023.25;4698195;29;102874;-84
2021/01/27 06:49:42;;;;;;;;;4.00;3.50;;;;;11.92;45.19;98019.97;4659688;29;103153;-84
2021/01/27 06:52:21;;;;;;;;;5.00;4.00;;;;;11.93;45.23;98018.94;4696176;29;103039;-84
2021/01/27 06:55:12;;;;;;;;;4.00;3.25;;;;;11.93;44.74;98024.34;4714198;29;104314;-84
2021/01/27 06:58:16;;;;;;;;;3.50;3.25;;;;;11.91;45.43;98026.44;4711637;29;102875;-84
2021/01/27 07:01:02;;;;;;;;;3.00;3.00;;;;;11.90;44.46;98022.06;4661492;29;103414;-84
2021/01/27 07:03:59;;;;;;;;;4.50;3.75;;;;;11.92;44.98;98028.09;4715943;29;103142;-84
2021/01/27 07:06:31;;;;;;;;;3.00;3.00;;;;;11.90;45.45;98027.47;4657873;29;109238;-84
2021/01/27 07:09:04;;;;;;;;;5.00;4.00;;;;;11.89;44.84;98023.94;4713095;29;103156;-84
2021/01/27 07:11:40;;;;;;;;;6.00;2.75;;;;;11.88;44.55;98029.59;4711688;29;102718;-84
2021/01/27 07:14:17;;;;;;;;;5.00;4.00;;;;;11.88;45.15;98027.72;4713499;29;102756;-84
2021/01/27 07:17:13;;;;;;;;;3.00;2.00;;;;;11.88;44.85;98024.19;4670374;29;109399;-84
2021/01/27 07:20:05;;;;;;;;;6.00;4.00;;;;;11.88;45.03;98032.31;4709148;29;102849;-84
2021/01/27 07:22:53;;;;;;;;;4.00;3.00;;;;;11.87;44.94;98030.66;4710657;29;103910;-85
2021/01/27 07:25:35;;;;;;;;;4.75;4.50;;;;;11.87;45.23;98036.06;4664639;29;102819;-85
2021/01/27 07:28:06;;;;;;;;;4.00;3.25;;;;;11.85;44.85;98028.16;4719998;29;104230;-84
2021/01/27 07:30:37;;;;;;;;;2.00;2.00;;;;;11.85;45.31;98032.72;4709920;29;103013;-84
2021/01/27 07:33:09;;;;;;;;;3.00;3.00;;;;;11.85;44.56;98038.97;4712810;29;104869;-84
2021/01/27 07:35:41;;;;;;;;;5.50;4.50;;;;;11.85;44.89;98032.72;4721005;29;102899;-84
2021/01/27 07:38:12;;;;;;;;;4.00;2.25;;;;;11.85;45.17;98043.56;4712380;29;109257;-84
2021/01/27 07:40:43;;;;;;;;;2.00;2.00;;;;;11.84;45.00;98037.31;4694090;29;104533;-84
2021/01/27 07:43:15;;;;;;;;;3.75;3.00;;;;;11.84;44.98;98044.66;4712995;29;103011;-84
2021/01/27 07:45:53;;;;;;;;;5.00;3.00;;;;;11.83;44.75;98041.09;4703449;29;103051;-84
2021/01/27 07:48:43;;;;;;;;;5.00;4.00;;;;;11.82;45.48;98034.03;4710938;29;105425;-84
2021/01/27 07:51:19;;;;;;;;;4.00;4.00;;;;;11.82;45.02;98044.03;4714909;29;104407;-84
2021/01/27 07:53:47;;;;;;;;;2.00;2.00;;;;;11.81;45.13;98040.47;4719205;29;103593;-84
2021/01/27 07:56:37;;;;;;;;;4.00;2.75;;;;;11.82;45.03;98044.03;4714073;29;103233;-84
2021/01/27 07:59:41;;;;;;;;;3.00;3.00;;;;;11.82;44.50;98034.03;4719683;29;103999;-84
2021/01/27 08:02:20;;;;;;;;;4.00;3.00;;;;;11.80;44.63;98049.66;4660913;29;103274;-84
2021/01/27 08:04:55;;;;;;;;;3.75;3.00;;;;;11.80;45.02;98052.38;4670111;29;102979;-84
2021/01/27 08:07:25;;;;;;;;;3.25;3.00;;;;;11.80;45.09;98043.41;4734309;29;104691;-84
2021/01/27 08:09:51;;;;;;;;;3.50;2.75;;;;;11.79;45.33;98041.78;4719145;29;104534;-84
2021/01/27 08:12:34;;;;;;;;;4.25;3.00;;;;;11.81;44.97;98055.91;4706779;29;102715;-84
2021/01/27 08:15:11;;;;;;;;;3.75;3.75;;;;;11.77;44.62;98036.56;4717066;29;103043;-84
2021/01/27 08:17:44;;;;;;;;;2.50;2.00;;;;;11.78;45.02;98049.06;4722181;29;104986;-84
2021/01/27 08:20:31;;;;;;;;;3.00;3.00;;;;;11.79;44.52;98053.44;4710342;29;109081;-83
2021/01/27 08:23:00;;;;;;;;;3.00;2.25;;;;;11.78;45.06;98045.53;4734663;28;103109;-84
2021/01/27 08:25:51;;;;;;;;;3.00;2.25;;;;;11.79;45.02;98056.16;4716592;29;103102;-84
2021/01/27 08:28:41;;;;;;;;;1.75;1.75;;;;;11.79;44.91;98056.16;4656628;29;104630;-84
2021/01/27 08:31:08;;;;;;;;;4.00;3.00;;;;;11.78;44.91;98064.47;4702505;29;109233;-85
2021/01/27 08:33:45;;;;;;;;;4.00;2.00;;;;;11.78;44.74;98054.47;4719068;29;103034;-84
2021/01/27 08:36:16;;;;;;;;;4.75;3.00;;;;;11.80;44.99;98067.78;4712985;29;102960;-84
2021/01/27 08:38:56;;;;;;;;;3.50;3.00;;;;;11.78;45.05;98065.31;4713831;29;103047;-84
2021/01/27 08:42:00;;;;;;;;;3.00;3.00;;;;;11.80;45.26;98062.38;4718949;29;103495;-84
2021/01/27 08:44:29;;;;;;;;;2.00;2.00;;;;;11.79;44.78;98071.56;4667864;29;103617;-84
2021/01/27 08:47:01;;;;;;;;;3.00;2.50;;;;;11.78;45.08;98068.03;4714349;29;103861;-84
2021/01/27 08:49:36;;;;;;;;;4.50;3.75;;;;;11.79;44.68;98072.41;4706171;29;102773;-85
2021/01/27 08:52:09;;;;;;;;;4.00;3.00;;;;;11.79;44.96;98076.97;4721491;29;104255;-84
2021/01/27 08:54:39;;;;;;;;;2.25;2.00;;;;;11.79;44.69;98085.09;4717132;29;103843;-84
2021/01/27 08:57:28;;;;;;;;;4.25;3.00;;;;;11.79;44.89;98087.81;4726100;29;102782;-84
2021/01/27 08:59:54;;;;;;;;;4.00;3.75;;;;;11.79;45.04;98085.09;4665071;29;102992;-84
2021/01/27 09:02:45;;;;;;;;;2.50;2.00;;;;;11.79;44.71;98076.97;4713032;29;104267;-84
2021/01/27 09:05:24;;;;;;;;;2.50;2.50;;;;;11.79;44.88;98083.22;4719958;29;102987;-82
2021/01/27 09:08:18;;;;;;;;;3.00;2.00;;;;;11.79;45.30;98079.69;4719368;29;102865;-84
2021/01/27 09:10:47;;;;;;;;;5.00;3.00;;;;;11.78;44.75;98078.84;4715307;29;103072;-84
2021/01/27 09:13:21;;;;;;;;;1.50;1.50;;;;;11.76;44.95;98085.53;4716095;29;104282;-84
2021/01/27 09:16:11;;;;;;;;;2.50;2.00;;;;;11.79;45.03;98088.66;4718151;29;102932;-84
2021/01/27 09:18:38;;;;;;;;;2.00;2.00;;;;;11.78;44.99;98076.16;4719160;29;102911;-85
2021/01/27 09:21:17;;;;;;;;;2.75;2.00;;;;;11.77;45.07;98079.06;4722587;29;103033;-84
2021/01/27 09:23:44;;;;;;;;;3.25;2.50;;;;;11.78;44.84;98070.72;4709489;29;108748;-84
2021/01/27 09:26:17;;;;;;;;;3.50;3.25;;;;;11.78;44.80;98086.16;4710302;29;102975;-84
2021/01/27 09:28:44;;;;;;;;;2.00;1.25;;;;;11.78;44.50;98078.84;4715828;29;102762;-84
2021/01/27 09:31:13;;;;;;;;;4.00;2.75;;;;;11.78;44.85;98081.56;4718190;29;102965;-84
2021/01/27 09:33:41;;;;;;;;;1.75;1.00;;;;;11.78;44.94;98076.16;4716241;29;109346;-84
2021/01/27 09:36:26;;;;;;;;;2.25;2.00;;;;;11.77;44.83;98077.19;4724205;29;102801;-84
2021/01/27 09:38:55;;;;;;;;;1.50;1.50;;;;;11.77;44.70;98071.78;4652518;29;103307;-84
2021/01/27 09:41:28;;;;;;;;;3.00;2.75;;;;;11.77;45.08;98079.06;4715626;29;104534;-84
2021/01/27 09:43:55;;;;;;;;;3.00;3.00;;;;;11.76;44.55;98080.94;4726068;29;104314;-84
2021/01/27 09:46:27;;;;;;;;;2.00;2.00;;;;;11.76;45.00;98088.25;4698406;29;102745;-84
2021/01/27 09:48:57;;;;;;;;;3.00;3.00;;;;;11.77;44.85;98084.47;4714741;29;102765;-84
2021/01/27 09:51:24;;;;;;;;;4.00;2.00;;;;;11.75;44.66;98076.59;4718495;29;102932;-84
2021/01/27 09:53:56;;;;;;;;;1.50;1.50;;;;;11.76;44.77;98080.09;4706125;29;104368;-84
2021/01/27 09:56:22;;;;;;;;;1.00;1.00;;;;;11.76;44.61;98082.81;4702117;29;103002;-84
2021/01/27 09:58:49;;;;;;;;;1.75;1.00;;;;;11.75;44.64;98076.59;4719818;29;102965;-84
2021/01/27 10:01:18;;;;;;;;;1.50;1.50;;;;;11.74;44.69;98074.94;4719179;29;102948;-84
2021/01/27 10:03:54;;;;;;;;;2.00;2.00;;;;;11.75;44.82;98083.91;4717526;29;104282;-84
2021/01/27 10:06:56;;;;;;;;;2.00;1.75;;;;;11.75;44.96;98086.59;4719879;29;102696;-84
2021/01/27 10:09:31;;;;;;;;;2.00;1.75;;;;;11.74;44.44;98093.06;4659793;29;102858;-84
2021/01/27 10:11:59;;;;;;;;;2.25;1.50;;;;;11.72;44.59;98084.28;4720282;29;102993;-84
2021/01/27 10:14:28;;;;;;;;;2.00;2.00;;;;;11.74;44.75;98082.22;4717411;29;104345;-84
2021/01/27 10:16:59;;;;;;;;;2.00;2.00;;;;;11.73;44.63;98088.69;4713845;29;103051;-84
2021/01/27 10:19:36;;;;;;;;;1.00;1.00;;;;;11.74;44.74;98093.06;4721476;29;104173;-84
2021/01/27 10:22:04;;;;;;;;;2.25;1.00;;;;;11.72;44.87;98092.41;4719144;29;104933;-85
2021/01/27 10:24:55;;;;;;;;;3.00;2.00;;;;;11.73;44.58;98086.81;4693429;29;103707;-84
2021/01/27 10:27:33;;;;;;;;;1.00;1.00;;;;;11.72;44.81;98082.44;4655669;29;102769;-84
2021/01/27 10:30:03;;;;;;;;;2.25;2.00;;;;;11.72;44.70;98079.72;4710164;29;102924;-84
2021/01/27 10:32:40;;;;;;;;;2.00;2.00;;;;;11.71;44.89;98074.53;4698463;29;103589;-84
2021/01/27 10:35:23;;;;;;;;;2.50;2.00;;;;;11.70;45.09;98079.09;4705054;29;103635;-84
2021/01/27 10:38:05;;;;;;;;;3.00;1.00;;;;;11.71;44.67;98079.94;4714548;29;104890;-84
2021/01/27 10:40:32;;;;;;;;;3.00;1.00;;;;;11.70;44.78;98083.69;4708797;29;105956;-84
2021/01/27 10:43:03;;;;;;;;;1.00;1.00;;;;;11.70;45.00;98078.28;4713725;29;103031;-84
2021/01/27 10:45:31;;;;;;;;;2.25;1.75;;;;;11.70;44.89;98083.69;4726744;29;103921;-84
2021/01/27 10:48:15;;;;;;;;;2.00;1.00;;;;;11.69;44.65;98076.63;4713304;29;102932;-84
2021/01/27 10:50:47;;;;;;;;;2.00;1.50;;;;;11.69;44.93;98082.03;4711100;29;102832;-84
2021/01/27 10:53:34;;;;;;;;;1.75;1.75;;;;;11.69;44.74;98082.03;4662624;29;102910;-84
2021/01/27 10:56:01;;;;;;;;;1.25;1.25;;;;;11.68;44.86;98069.53;4711941;29;104563;-84
2021/01/27 10:58:28;;;;;;;;;1.75;1.75;;;;;11.67;44.62;98082.22;4717467;29;103131;-84
2021/01/27 11:00:54;;;;;;;;;1.00;1.00;;;;;11.67;45.00;98081.41;4710712;29;102997;-84
2021/01/27 11:03:21;;;;;;;;;1.50;1.00;;;;;11.67;44.92;98074.13;4711591;29;102995;-84
2021/01/27 11:05:48;;;;;;;;;3.00;2.00;;;;;11.68;44.34;98074.94;4718682;29;104644;-83
2021/01/27 11:08:34;;;;;;;;;2.75;1.00;;;;;11.67;44.69;98076.81;4712515;29;102991;-84
2021/01/27 11:11:02;;;;;;;;;1.00;1.00;;;;;11.68;44.97;98080.34;4659535;29;102815;-84
2021/01/27 11:13:31;;;;;;;;;1.00;1.00;;;;;11.67;44.72;98084.09;4696784;29;103183;-84
2021/01/27 11:15:59;;;;;;;;;1.00;1.00;;;;;11.67;45.14;98078.69;4706212;29;103974;-84
2021/01/27 11:18:26;;;;;;;;;2.00;2.00;;;;;11.67;44.41;98076.00;4715146;29;102772;-84
2021/01/27 11:20:52;;;;;;;;;2.00;1.00;;;;;11.67;44.84;98078.69;4713289;29;103252;-84
2021/01/27 11:23:23;;;;;;;;;1.00;1.00;;;;;11.67;44.19;98076.00;4715000;29;102981;-84
2021/01/27 11:25:50;;;;;;;;;1.75;1.00;;;;;11.66;44.61;98075.19;4710077;29;105032;-84
2021/01/27 11:28:16;;;;;;;;;3.00;1.25;;;;;11.66;44.93;98088.72;4719601;29;102901;-84
2021/01/27 11:30:43;;;;;;;;;0.25;0.25;;;;;11.66;44.66;98077.06;4716635;29;104891;-84
2021/01/27 11:33:11;;;;;;;;;1.25;1.25;;;;;11.63;44.82;98075.59;4721839;29;102984;-84
2021/01/27 11:35:39;;;;;;;;;0.00;0.00;;;;;11.66;44.81;98088.72;4715613;29;103868;-84
2021/01/27 11:38:05;;;;;;;;;2.00;1.00;;;;;11.65;44.91;98078.94;4713477;29;102810;-84
2021/01/27 11:40:32;;;;;;;;;1.00;1.00;;;;;11.66;44.49;98082.47;4732260;29;103027;-84
2021/01/27 11:42:59;;;;;;;;;1.00;0.25;;;;;11.66;44.62;98077.06;4713878;29;102924;-84
2021/01/27 11:45:25;;;;;;;;;1.00;1.00;;;;;11.64;44.82;98072.69;4715984;29;103861;-85
2021/01/27 11:47:52;;;;;;;;;2.00;1.00;;;;;11.64;44.52;98077.28;4719033;29;102958;-84
2021/01/27 11:50:22;;;;;;;;;1.00;1.00;;;;;11.66;44.58;98075.19;4711327;29;102857;-84
2021/01/27 11:52:49;;;;;;;;;1.00;1.00;;;;;11.65;44.52;98073.53;4720167;29;103022;-84
2021/01/27 11:55:17;;;;;;;;;0.75;0.75;;;;;11.65;44.45;98076.22;4720168;29;104161;-84